Time;durP1;ratioP1;P1;durP2;ratioP2;P2;SDS_P1;SDS_P2;PMS_P1;PMS_P2;Temp;Humidity;BMP_temperature;BMP_pressure;BME280_temperature;BME280_humidity;BME280_pressure;Samples;Min_cycle;Max_cycle;Signal;HPM_P1;HPM_P2
2023/08/09 00:00:14;;;;;;;3.27;2.17;;;;;;;;;;2615090;54;20411;-74
2023/08/09 00:05:43;;;;;;;3.80;1.93;;;;;;;;;;2614934;54;20351;-75
2023/08/09 00:11:12;;;;;;;2.97;2.17;;;;;;;;;;2614881;54;20379;-75
2023/08/09 00:16:42;;;;;;;3.30;2.30;;;;;;;;;;2614707;54;20474;-74
2023/08/09 00:22:12;;;;;;;3.13;2.30;;;;;;;;;;2614926;54;20346;-75
2023/08/09 00:27:42;;;;;;;4.17;2.60;;;;;;;;;;2615227;54;20375;-75
2023/08/09 00:33:12;;;;;;;4.93;2.60;;;;;;;;;;2615521;39;20993;-75
2023/08/09 00:38:43;;;;;;;2.97;2.33;;;;;;;;;;2615199;54;20362;-76
2023/08/09 00:44:12;;;;;;;3.43;2.87;;;;;;;;;;2615443;54;20376;-77
2023/08/09 00:49:42;;;;;;;4.63;4.03;;;;;;;;;;2615652;54;20688;-77
2023/08/09 00:55:11;;;;;;;6.23;4.67;;;;;;;;;;2615501;54;20354;-76
2023/08/09 01:00:41;;;;;;;5.40;4.33;;;;;;;;;;2615257;54;20394;-76
2023/08/09 01:12:29;;;;;;;6.90;5.20;;;;;;;;;;2614718;31;20885;-77
2023/08/09 01:17:58;;;;;;;10.30;6.13;;;;;;;;;;2613897;54;20446;-77
2023/08/09 01:23:40;;;;;;;4.77;3.70;;;;;;;;;;2613462;54;20371;-76
2023/08/09 01:29:09;;;;;;;2.10;1.50;;;;;;;;;;2613839;54;21004;-78
2023/08/09 01:34:39;;;;;;;2.53;1.27;;;;;;;;;;2613791;54;20378;-76
2023/08/09 01:40:10;;;;;;;1.70;1.13;;;;;;;;;;2613542;54;20570;-77
2023/08/09 01:45:39;;;;;;;1.60;1.20;;;;;;;;;;2614597;54;21015;-76
2023/08/09 01:51:08;;;;;;;2.43;1.50;;;;;;;;;;2614585;54;20359;-76
2023/08/09 01:56:39;;;;;;;2.47;2.10;;;;;;;;;;2614942;54;20355;-76
2023/08/09 02:02:08;;;;;;;5.63;4.33;;;;;;;;;;2614671;54;20414;-76
2023/08/09 02:07:39;;;;;;;7.23;5.17;;;;;;;;;;2614809;54;20383;-75
2023/08/09 02:13:09;;;;;;;7.80;6.17;;;;;;;;;;2614898;54;20510;-75
2023/08/09 02:15:52;;;;;;;9.03;6.83;;;;;;;;;;2615684;39;20784;-74
2023/08/09 02:18:19;;;;;;;12.77;7.17;;;;;;;;;;2614808;47;20510;-75
2023/08/09 02:23:48;;;;;;;9.90;6.60;;;;;;;;;;2614886;54;20398;-76
2023/08/09 02:29:18;;;;;;;11.10;7.47;;;;;;;;;;2614331;54;20387;-75
2023/08/09 02:34:48;;;;;;;14.70;9.00;;;;;;;;;;2614882;54;20350;-75
2023/08/09 02:40:17;;;;;;;8.73;6.37;;;;;;;;;;2614578;54;20394;-74
2023/08/09 02:45:47;;;;;;;8.43;6.77;;;;;;;;;;2614520;54;20367;-75
2023/08/09 02:51:17;;;;;;;8.70;6.90;;;;;;;;;;2614332;54;20546;-75
2023/08/09 02:56:46;;;;;;;12.13;7.03;;;;;;;;;;2615226;54;20934;-77
2023/08/09 03:02:16;;;;;;;10.63;6.60;;;;;;;;;;2615619;54;20378;-76
2023/08/09 03:07:46;;;;;;;10.63;6.37;;;;;;;;;;2615434;54;20350;-76
2023/08/09 03:13:15;;;;;;;7.67;5.57;;;;;;;;;;2615642;54;20407;-77
2023/08/09 03:15:52;;;;;;;10.67;6.53;;;;;;;;;;2615406;54;20411;-75
2023/08/09 03:18:18;;;;;;;8.17;6.80;;;;;;;;;;2614253;47;20430;-74
2023/08/09 03:23:48;;;;;;;7.10;5.93;;;;;;;;;;2615390;54;20379;-77
2023/08/09 03:29:18;;;;;;;7.73;5.97;;;;;;;;;;2615392;54;20366;-75
2023/08/09 03:34:47;;;;;;;10.50;6.60;;;;;;;;;;2615747;54;20378;-75
2023/08/09 03:40:17;;;;;;;11.30;8.93;;;;;;;;;;2615280;54;20411;-75
2023/08/09 03:45:47;;;;;;;11.60;8.93;;;;;;;;;;2615724;54;20355;-74
2023/08/09 03:51:17;;;;;;;17.23;10.77;;;;;;;;;;2615096;54;20390;-75
2023/08/09 03:56:46;;;;;;;11.63;10.40;;;;;;;;;;2615560;54;20941;-74
2023/08/09 04:02:17;;;;;;;12.40;10.97;;;;;;;;;;2615426;54;20367;-74
2023/08/09 04:07:47;;;;;;;14.80;13.27;;;;;;;;;;2615718;54;20390;-73
2023/08/09 04:13:16;;;;;;;16.70;12.70;;;;;;;;;;2615500;54;20439;-72
2023/08/09 04:15:52;;;;;;;17.83;15.27;;;;;;;;;;2614643;54;20607;-72
2023/08/09 04:18:18;;;;;;;18.40;15.53;;;;;;;;;;2615251;54;20423;-72
2023/08/09 04:23:48;;;;;;;18.00;13.60;;;;;;;;;;2615702;46;20366;-72
2023/08/09 04:29:17;;;;;;;22.67;16.40;;;;;;;;;;2614910;54;20351;-74
2023/08/09 04:34:47;;;;;;;24.20;17.17;;;;;;;;;;2615200;54;20386;-75
2023/08/09 04:40:17;;;;;;;18.43;16.07;;;;;;;;;;2615127;54;20415;-74
2023/08/09 04:45:47;;;;;;;23.50;17.93;;;;;;;;;;2615171;54;20411;-74
2023/08/09 04:51:18;;;;;;;18.70;16.13;;;;;;;;;;2614917;54;20386;-75
2023/08/09 04:56:47;;;;;;;21.30;18.77;;;;;;;;;;2615274;54;20387;-74
2023/08/09 05:02:17;;;;;;;26.30;20.50;;;;;;;;;;2615103;54;20427;-74
2023/08/09 05:07:47;;;;;;;35.67;20.87;;;;;;;;;;2615540;54;20369;-74
2023/08/09 05:13:16;;;;;;;27.57;21.97;;;;;;;;;;2615462;54;20387;-74
2023/08/09 05:15:52;;;;;;;30.50;23.00;;;;;;;;;;2615132;54;20419;-74
2023/08/09 05:18:18;;;;;;;35.10;24.20;;;;;;;;;;2615113;47;20480;-74
2023/08/09 05:23:48;;;;;;;34.73;23.83;;;;;;;;;;2615749;54;20383;-74
2023/08/09 05:29:17;;;;;;;34.77;23.70;;;;;;;;;;2615186;54;21138;-75
2023/08/09 05:34:47;;;;;;;36.47;26.47;;;;;;;;;;2615278;54;20359;-75
2023/08/09 05:40:17;;;;;;;35.87;23.43;;;;;;;;;;2615780;46;20399;-75
2023/08/09 05:45:47;;;;;;;28.37;22.10;;;;;;;;;;2615602;54;20358;-75
2023/08/09 05:51:16;;;;;;;29.67;21.43;;;;;;;;;;2615219;54;20433;-76
2023/08/09 05:56:46;;;;;;;27.90;19.30;;;;;;;;;;2615955;54;20367;-74
2023/08/09 06:02:15;;;;;;;23.57;17.90;;;;;;;;;;2615145;54;20415;-76
2023/08/09 06:07:45;;;;;;;17.67;13.50;;;;;;;;;;2614843;54;20382;-75
2023/08/09 06:13:15;;;;;;;20.00;15.07;;;;;;;;;;2615471;54;20516;-74
2023/08/09 06:15:52;;;;;;;20.37;15.10;;;;;;;;;;2614431;54;20399;-74
2023/08/09 06:18:18;;;;;;;21.27;14.23;;;;;;;;;;2614015;54;20478;-74
2023/08/09 06:23:47;;;;;;;20.30;14.47;;;;;;;;;;2615354;39;20781;-74
2023/08/09 06:29:18;;;;;;;17.03;13.80;;;;;;;;;;2615037;39;20748;-72
2023/08/09 06:34:48;;;;;;;14.80;10.60;;;;;;;;;;2615258;54;20481;-71
2023/08/09 06:40:18;;;;;;;13.93;12.10;;;;;;;;;;2614825;54;20512;-73
2023/08/09 06:45:48;;;;;;;16.97;12.70;;;;;;;;;;2615448;54;20375;-73
2023/08/09 06:51:18;;;;;;;15.60;13.40;;;;;;;;;;2615070;46;20383;-73
2023/08/09 06:56:48;;;;;;;14.40;12.90;;;;;;;;;;2615179;54;20499;-72
2023/08/09 07:02:19;;;;;;;16.33;14.00;;;;;;;;;;2615220;54;20395;-72
2023/08/09 07:07:51;;;;;;;15.90;14.40;;;;;;;;;;2615413;54;20446;-72
2023/08/09 07:13:21;;;;;;;18.60;16.67;;;;;;;;;;2615494;54;20498;-72
2023/08/09 07:15:49;;;;;;;18.70;16.23;;;;;;;;;;2614823;54;20515;-71
2023/08/09 07:18:15;;;;;;;19.50;17.00;;;;;;;;;;2614990;54;20456;-72
2023/08/09 07:23:44;;;;;;;25.50;17.37;;;;;;;;;;2615406;54;21050;-72
2023/08/09 07:29:14;;;;;;;25.70;18.53;;;;;;;;;;2615461;54;20925;-71
2023/08/09 07:34:44;;;;;;;24.73;18.73;;;;;;;;;;2615470;54;20411;-76
2023/08/09 07:40:14;;;;;;;23.87;18.90;;;;;;;;;;2614784;54;20435;-75
2023/08/09 07:45:48;;;;;;;26.43;19.67;;;;;;;;;;2615372;54;20378;-76
2023/08/09 07:51:17;;;;;;;24.50;20.37;;;;;;;;;;2615101;54;20390;-76
2023/08/09 07:56:47;;;;;;;21.80;18.73;;;;;;;;;;2615274;54;20386;-75
2023/08/09 08:02:17;;;;;;;20.73;18.63;;;;;;;;;;2615197;54;20367;-75
2023/08/09 08:07:46;;;;;;;21.40;19.23;;;;;;;;;;2615396;54;20467;-74
2023/08/09 08:13:16;;;;;;;24.90;20.77;;;;;;;;;;2614988;54;20472;-75
2023/08/09 08:15:52;;;;;;;22.97;19.10;;;;;;;;;;2614189;47;20428;-75
2023/08/09 08:18:18;;;;;;;21.17;18.87;;;;;;;;;;2614970;54;20456;-76
2023/08/09 08:23:48;;;;;;;21.20;17.63;;;;;;;;;;2615000;54;20996;-75
2023/08/09 08:29:17;;;;;;;22.17;17.73;;;;;;;;;;2614988;54;20584;-75
2023/08/09 08:34:47;;;;;;;20.70;18.53;;;;;;;;;;2615883;39;20760;-76
2023/08/09 08:40:17;;;;;;;18.53;16.47;;;;;;;;;;2614835;54;20427;-76
2023/08/09 08:45:47;;;;;;;19.90;15.73;;;;;;;;;;2615410;54;20371;-76
2023/08/09 08:51:18;;;;;;;16.03;14.53;;;;;;;;;;2615842;39;20764;-76
2023/08/09 08:56:48;;;;;;;17.23;15.57;;;;;;;;;;2616023;54;20351;-76
2023/08/09 09:02:19;;;;;;;16.60;15.00;;;;;;;;;;2615919;54;20359;-75
2023/08/09 09:07:56;;;;;;;17.13;15.33;;;;;;;;;;2616226;54;20422;-76
2023/08/09 09:13:26;;;;;;;16.77;15.00;;;;;;;;;;2614501;54;20387;-75
2023/08/09 09:22:23;;;;;;;17.77;16.17;;;;;;;;;;2614835;54;20435;-75
2023/08/09 09:27:56;;;;;;;19.53;17.53;;;;;;;;;;2614499;54;20379;-75
2023/08/09 09:33:35;;;;;;;15.13;14.03;;;;;;;;;;2615062;39;20766;-76
2023/08/09 09:39:09;;;;;;;16.50;15.10;;;;;;;;;;2614347;54;20559;-76
2023/08/09 09:44:39;;;;;;;17.20;15.70;;;;;;;;;;2616060;54;20411;-76
2023/08/09 09:50:10;;;;;;;15.40;14.20;;;;;;;;;;2615877;46;20382;-76
2023/08/09 09:55:40;;;;;;;14.83;13.53;;;;;;;;;;2614921;54;20354;-75
2023/08/09 10:01:10;;;;;;;14.20;13.03;;;;;;;;;;2614169;54;20395;-75
2023/08/09 10:06:44;;;;;;;12.50;11.60;;;;;;;;;;2613043;54;20835;-74
2023/08/09 10:12:14;;;;;;;14.40;13.00;;;;;;;;;;2614149;54;20383;-76
2023/08/09 10:17:44;;;;;;;13.77;12.77;;;;;;;;;;2614924;54;20379;-75
2023/08/09 10:29:23;;;;;;;10.20;9.50;;;;;;;;;;2613369;54;20342;-75
2023/08/09 10:34:54;;;;;;;10.87;10.00;;;;;;;;;;2614012;54;20354;-75
2023/08/09 10:40:26;;;;;;;11.37;10.40;;;;;;;;;;2613055;54;20984;-75
2023/08/09 10:45:55;;;;;;;12.20;11.30;;;;;;;;;;2613509;54;20466;-75
2023/08/09 10:51:24;;;;;;;13.40;12.17;;;;;;;;;;2613421;54;20395;-74
2023/08/09 10:56:53;;;;;;;11.20;10.23;;;;;;;;;;2613766;39;20793;-74
2023/08/09 11:02:22;;;;;;;12.10;11.10;;;;;;;;;;2613802;54;20434;-74
2023/08/09 11:07:56;;;;;;;10.90;10.10;;;;;;;;;;2614398;54;20471;-75
2023/08/09 11:13:26;;;;;;;12.10;11.17;;;;;;;;;;2614322;54;20359;-75
2023/08/09 11:25:06;;;;;;;11.13;10.20;;;;;;;;;;2615704;39;21242;-75
2023/08/09 11:30:36;;;;;;;11.10;10.27;;;;;;;;;;2615093;54;20395;-75
2023/08/09 11:36:08;;;;;;;10.10;9.40;;;;;;;;;;2615367;54;20391;-74
2023/08/09 11:41:44;;;;;;;11.33;10.33;;;;;;;;;;2615190;54;20465;-76
2023/08/09 11:47:14;;;;;;;11.37;10.47;;;;;;;;;;2615238;54;20522;-75
2023/08/09 11:52:43;;;;;;;11.23;10.23;;;;;;;;;;2615262;54;20423;-75
2023/08/09 11:58:14;;;;;;;10.60;9.80;;;;;;;;;;2615703;39;20742;-75
2023/08/09 12:03:44;;;;;;;14.53;13.40;;;;;;;;;;2615072;54;20371;-75
2023/08/09 12:09:34;;;;;;;14.93;13.53;;;;;;;;;;2615983;39;20761;-76
2023/08/09 12:15:04;;;;;;;12.67;11.50;;;;;;;;;;2615645;54;20940;-74
2023/08/09 12:20:34;;;;;;;11.93;11.10;;;;;;;;;;2614748;54;20434;-75
2023/08/09 12:26:07;;;;;;;9.30;8.60;;;;;;;;;;2615234;39;20908;-73
2023/08/09 12:31:37;;;;;;;9.97;9.40;;;;;;;;;;2615082;54;20446;-72
2023/08/09 12:37:07;;;;;;;9.93;9.23;;;;;;;;;;2614915;54;20403;-74
2023/08/09 12:42:36;;;;;;;11.80;10.90;;;;;;;;;;2614963;54;20398;-73
2023/08/09 12:48:06;;;;;;;10.80;10.20;;;;;;;;;;2614968;54;20977;-74
2023/08/09 12:53:37;;;;;;;10.43;9.73;;;;;;;;;;2615582;54;20426;-74
2023/08/09 12:59:06;;;;;;;10.50;9.70;;;;;;;;;;2614583;54;20386;-75
2023/08/09 13:04:36;;;;;;;10.00;9.20;;;;;;;;;;2612719;54;20398;-73
2023/08/09 13:10:06;;;;;;;9.60;9.00;;;;;;;;;;2614261;54;20377;-74
2023/08/09 13:15:36;;;;;;;9.30;8.70;;;;;;;;;;2614539;54;20359;-74
2023/08/09 13:18:11;;;;;;;8.83;8.23;;;;;;;;;;2614243;54;20435;-74
2023/08/09 13:20:37;;;;;;;9.27;8.47;;;;;;;;;;2613391;54;21032;-73
2023/08/09 13:26:07;;;;;;;8.60;8.10;;;;;;;;;;2614582;54;20465;-74
2023/08/09 13:31:36;;;;;;;10.30;9.40;;;;;;;;;;2614349;54;20359;-73
2023/08/09 13:37:06;;;;;;;10.00;9.20;;;;;;;;;;2614677;54;20410;-75
2023/08/09 13:42:36;;;;;;;9.93;9.10;;;;;;;;;;2614910;54;20382;-74
2023/08/09 13:48:08;;;;;;;9.07;8.57;;;;;;;;;;2615223;39;20768;-72
2023/08/09 13:53:38;;;;;;;10.63;9.93;;;;;;;;;;2615498;54;20387;-72
2023/08/09 13:59:07;;;;;;;9.10;8.70;;;;;;;;;;2615091;54;20411;-71
2023/08/09 14:04:37;;;;;;;9.10;8.50;;;;;;;;;;2614894;54;20443;-71
2023/08/09 14:10:07;;;;;;;8.93;8.23;;;;;;;;;;2614542;54;20383;-72
2023/08/09 14:15:37;;;;;;;9.70;9.10;;;;;;;;;;2614698;54;20905;-71
2023/08/09 14:18:12;;;;;;;10.10;9.10;;;;;;;;;;2615043;54;20423;-72
2023/08/09 14:20:38;;;;;;;9.83;9.10;;;;;;;;;;2615145;54;21449;-72
2023/08/09 14:26:08;;;;;;;8.63;8.03;;;;;;;;;;2615101;54;20366;-72
2023/08/09 14:31:48;;;;;;;8.90;8.40;;;;;;;;;;2614176;54;21357;-73
2023/08/09 14:37:18;;;;;;;9.07;8.47;;;;;;;;;;2614666;54;20420;-73
2023/08/09 14:42:48;;;;;;;9.47;8.77;;;;;;;;;;2614564;54;20439;-74
2023/08/09 14:48:17;;;;;;;9.50;9.00;;;;;;;;;;2615075;54;20383;-74
2023/08/09 14:53:47;;;;;;;12.07;9.03;;;;;;;;;;2615797;39;20951;-74
2023/08/09 14:59:17;;;;;;;9.90;9.30;;;;;;;;;;2616339;54;20427;-75
2023/08/09 15:04:47;;;;;;;9.53;8.93;;;;;;;;;;2616723;54;20386;-74
2023/08/09 15:10:17;;;;;;;10.23;9.50;;;;;;;;;;2616939;54;20909;-75
2023/08/09 15:15:46;;;;;;;10.53;9.73;;;;;;;;;;2617270;54;20367;-74
2023/08/09 15:27:23;;;;;;;13.20;10.77;;;;;;;;;;2616448;54;20937;-74
2023/08/09 15:32:52;;;;;;;61.87;18.60;;;;;;;;;;2616991;54;20406;-75
2023/08/09 15:38:22;;;;;;;11.73;10.60;;;;;;;;;;2617241;39;20752;-74
2023/08/09 15:43:51;;;;;;;9.73;8.73;;;;;;;;;;2616996;54;20392;-74
2023/08/09 15:49:21;;;;;;;9.53;9.03;;;;;;;;;;2615074;54;20383;-73
2023/08/09 15:54:51;;;;;;;9.90;9.10;;;;;;;;;;2614997;54;20383;-73
2023/08/09 16:00:20;;;;;;;9.17;8.67;;;;;;;;;;2614886;54;20359;-74
2023/08/09 16:05:50;;;;;;;15.17;9.40;;;;;;;;;;2615335;54;20411;-73
2023/08/09 16:11:19;;;;;;;10.03;9.17;;;;;;;;;;2615265;54;20378;-72
2023/08/09 16:16:49;;;;;;;10.67;9.70;;;;;;;;;;2615784;54;20483;-72
2023/08/09 16:31:49;;;;;;;10.53;9.80;;;;;;;;;;2614081;54;20415;-71
2023/08/09 16:37:18;;;;;;;12.87;9.27;;;;;;;;;;2614609;46;20402;-72
2023/08/09 16:42:47;;;;;;;9.60;9.10;;;;;;;;;;2614195;54;20387;-71
2023/08/09 16:48:17;;;;;;;9.70;9.10;;;;;;;;;;2614881;54;20375;-71
2023/08/09 16:53:46;;;;;;;9.70;8.97;;;;;;;;;;2613981;54;20428;-71
2023/08/09 16:59:16;;;;;;;10.60;9.70;;;;;;;;;;2614691;54;20936;-72
2023/08/09 17:04:45;;;;;;;9.00;8.30;;;;;;;;;;2615587;54;20354;-71
2023/08/09 17:10:15;;;;;;;9.30;8.60;;;;;;;;;;2614577;54;20394;-72
2023/08/09 17:15:45;;;;;;;8.73;8.23;;;;;;;;;;2615456;54;20418;-74
2023/08/09 17:21:16;;;;;;;8.10;7.40;;;;;;;;;;2617528;54;20407;-75
2023/08/09 17:26:45;;;;;;;10.50;9.77;;;;;;;;;;2617021;47;20852;-75
2023/08/09 17:32:15;;;;;;;10.27;9.40;;;;;;;;;;2616907;54;20395;-75
2023/08/09 17:37:45;;;;;;;11.50;10.77;;;;;;;;;;2616693;54;20374;-74
2023/08/09 17:43:14;;;;;;;13.83;12.77;;;;;;;;;;2616749;54;20379;-74
2023/08/09 17:48:44;;;;;;;12.97;11.87;;;;;;;;;;2616320;54;20411;-75
2023/08/09 17:54:14;;;;;;;9.70;9.00;;;;;;;;;;2616438;54;20399;-74
2023/08/09 17:59:44;;;;;;;9.23;8.53;;;;;;;;;;2616518;54;21313;-75
2023/08/09 18:05:14;;;;;;;8.93;8.10;;;;;;;;;;2616033;54;20375;-73
2023/08/09 18:10:44;;;;;;;9.00;8.50;;;;;;;;;;2614811;54;20376;-74
2023/08/09 18:16:14;;;;;;;8.20;7.60;;;;;;;;;;2614455;54;20933;-74
2023/08/09 18:27:51;;;;;;;7.77;7.17;;;;;;;;;;2616519;54;20562;-73
2023/08/09 18:33:21;;;;;;;7.83;7.10;;;;;;;;;;2615686;54;20355;-74
2023/08/09 18:38:51;;;;;;;7.30;6.67;;;;;;;;;;2612527;54;20380;-74
2023/08/09 18:44:21;;;;;;;7.27;6.83;;;;;;;;;;2615490;39;20510;-74
2023/08/09 18:49:50;;;;;;;6.93;6.43;;;;;;;;;;2612716;54;20498;-73
2023/08/09 18:55:20;;;;;;;7.13;6.37;;;;;;;;;;2612641;54;20861;-74
2023/08/09 19:00:50;;;;;;;9.93;8.93;;;;;;;;;;2612939;54;20398;-74
2023/08/09 19:06:20;;;;;;;8.47;7.70;;;;;;;;;;2613071;54;20398;-74
2023/08/09 19:11:49;;;;;;;9.47;8.63;;;;;;;;;;2612697;54;20355;-73
2023/08/09 19:17:19;;;;;;;9.70;8.90;;;;;;;;;;2614401;54;20379;-74
2023/08/09 19:22:50;;;;;;;8.80;8.10;;;;;;;;;;2614901;39;20891;-76
2023/08/09 19:28:20;;;;;;;7.07;6.47;;;;;;;;;;2616364;54;20350;-74
2023/08/09 19:33:49;;;;;;;9.53;8.40;;;;;;;;;;2616975;54;20390;-73
2023/08/09 19:39:19;;;;;;;14.27;8.40;;;;;;;;;;2615735;39;20808;-74
2023/08/09 19:44:49;;;;;;;6.87;6.20;;;;;;;;;;2616937;54;21145;-74
2023/08/09 19:50:19;;;;;;;6.30;5.90;;;;;;;;;;2616396;54;20410;-74
2023/08/09 19:55:49;;;;;;;6.40;5.80;;;;;;;;;;2616586;54;20379;-75
2023/08/09 20:01:19;;;;;;;5.73;5.33;;;;;;;;;;2616131;54;20394;-75
2023/08/09 20:06:49;;;;;;;6.30;5.70;;;;;;;;;;2616749;54;20347;-74
2023/08/09 20:12:18;;;;;;;7.00;6.30;;;;;;;;;;2616357;54;20418;-76
2023/08/09 20:17:48;;;;;;;6.10;5.70;;;;;;;;;;2615870;54;20411;-74
2023/08/09 20:26:52;;;;;;;7.73;5.80;;;;;;;;;;2616657;54;20527;-75
2023/08/09 20:32:22;;;;;;;7.87;5.60;;;;;;;;;;2616190;54;20407;-75
2023/08/09 20:37:52;;;;;;;6.63;5.77;;;;;;;;;;2616740;54;20379;-75
2023/08/09 20:43:23;;;;;;;6.40;5.80;;;;;;;;;;2617002;54;20371;-75
2023/08/09 20:48:53;;;;;;;5.87;5.37;;;;;;;;;;2617216;54;20956;-75
2023/08/09 20:54:23;;;;;;;5.73;5.17;;;;;;;;;;2616871;54;20394;-75
2023/08/09 20:59:53;;;;;;;6.27;5.60;;;;;;;;;;2616321;54;21047;-75
2023/08/09 21:05:23;;;;;;;7.60;5.03;;;;;;;;;;2617027;54;20391;-75
2023/08/09 21:10:53;;;;;;;9.03;6.03;;;;;;;;;;2617161;54;20391;-75
2023/08/09 21:16:22;;;;;;;9.20;5.03;;;;;;;;;;2616899;54;20378;-75
2023/08/09 21:21:52;;;;;;;4.83;3.90;;;;;;;;;;2617124;54;20442;-75
2023/08/09 21:27:22;;;;;;;6.93;4.90;;;;;;;;;;2616757;54;20455;-75
2023/08/09 21:32:51;;;;;;;6.63;6.00;;;;;;;;;;2617455;39;20799;-75
2023/08/09 21:38:21;;;;;;;5.70;4.63;;;;;;;;;;2614991;54;20363;-73
2023/08/09 21:43:51;;;;;;;7.20;5.00;;;;;;;;;;2615169;54;20471;-73
2023/08/09 21:49:20;;;;;;;7.30;4.90;;;;;;;;;;2614119;54;20399;-74
2023/08/09 21:54:50;;;;;;;4.83;4.10;;;;;;;;;;2615200;54;20366;-74
2023/08/09 22:00:21;;;;;;;9.30;4.70;;;;;;;;;;2614882;39;20771;-75
2023/08/09 22:05:53;;;;;;;6.80;4.17;;;;;;;;;;2614840;46;20362;-74
2023/08/09 22:11:22;;;;;;;14.50;3.90;;;;;;;;;;2614871;54;20351;-74
2023/08/09 22:16:53;;;;;;;12.23;5.00;;;;;;;;;;2614513;54;20399;-74
2023/08/09 22:22:23;;;;;;;9.40;5.67;;;;;;;;;;2615092;54;20363;-74
2023/08/09 22:31:37;;;;;;;4.70;4.27;;;;;;;;;;2614942;54;20385;-73
2023/08/09 22:37:06;;;;;;;7.07;3.97;;;;;;;;;;2614899;54;20558;-73
2023/08/09 22:42:36;;;;;;;7.97;4.77;;;;;;;;;;2614649;54;20380;-73
2023/08/09 22:45:21;;;;;;;5.33;4.37;;;;;;;;;;2614611;54;20412;-73
2023/08/09 22:47:47;;;;;;;6.83;4.30;;;;;;;;;;2616388;54;20407;-74
2023/08/09 22:53:22;;;;;;;4.83;3.50;;;;;;;;;;2616653;54;20945;-75
2023/08/09 22:58:52;;;;;;;10.60;4.60;;;;;;;;;;2616205;54;20398;-75
2023/08/09 23:04:21;;;;;;;5.90;4.07;;;;;;;;;;2616450;54;20952;-74
2023/08/09 23:09:51;;;;;;;5.00;4.20;;;;;;;;;;2616711;46;20401;-74
2023/08/09 23:15:21;;;;;;;7.53;4.30;;;;;;;;;;2617629;54;20426;-75
2023/08/09 23:20:51;;;;;;;10.60;5.43;;;;;;;;;;2617150;54;20414;-75
2023/08/09 23:26:21;;;;;;;6.23;3.90;;;;;;;;;;2617743;54;20378;-75
2023/08/09 23:31:51;;;;;;;7.60;4.87;;;;;;;;;;2616721;54;20470;-74
2023/08/09 23:37:21;;;;;;;7.80;5.00;;;;;;;;;;2616805;54;20403;-74
2023/08/09 23:42:51;;;;;;;9.20;4.50;;;;;;;;;;2616814;54;20407;-74
2023/08/09 23:48:21;;;;;;;7.70;4.70;;;;;;;;;;2616751;54;20948;-74
2023/08/09 23:53:51;;;;;;;5.30;4.57;;;;;;;;;;2616656;54;20387;-74
2023/08/09 23:59:20;;;;;;;9.43;4.33;;;;;;;;;;2615117;54;20411;-72
